Time;durP1;ratioP1;P1;durP2;ratioP2;P2;SDS_P1;SDS_P2;PMS_P1;PMS_P2;Temp;Humidity;BMP_temperature;BMP_pressure;BME280_temperature;BME280_humidity;BME280_pressure;Samples;Min_cycle;Max_cycle;Signal;HPM_P1;HPM_P2
2023/01/13 00:01:14;;;;;;;17.45;10.63;;;27.20;94.70;;;;;;5006757;28;20026;-53
2023/01/13 00:03:41;;;;;;;21.20;10.57;;;27.10;94.70;;;;;;5007066;28;20037;-54
2023/01/13 00:06:16;;;;;;;18.98;10.38;;;27.20;94.70;;;;;;5006674;28;20015;-59
2023/01/13 00:08:42;;;;;;;17.85;9.85;;;27.10;94.70;;;;;;5006676;28;20066;-55
2023/01/13 00:11:10;;;;;;;16.25;9.18;;;27.20;94.70;;;;;;5006571;28;20025;-52
2023/01/13 00:13:37;;;;;;;16.40;9.43;;;27.20;94.70;;;;;;5007272;28;20058;-57
2023/01/13 00:16:07;;;;;;;16.42;9.07;;;27.20;94.70;;;;;;5006586;28;20049;-49
2023/01/13 00:18:35;;;;;;;21.55;10.23;;;27.20;94.70;;;;;;5007035;28;20038;-57
2023/01/13 00:21:04;;;;;;;16.02;9.98;;;27.20;94.80;;;;;;5006558;28;20026;-54
2023/01/13 00:23:32;;;;;;;16.50;10.32;;;27.10;94.80;;;;;;5006704;28;20031;-54
2023/01/13 00:26:05;;;;;;;17.58;9.85;;;27.10;94.70;;;;;;5006778;28;20172;-52
2023/01/13 00:28:32;;;;;;;19.17;10.18;;;27.20;95.00;;;;;;5005742;28;20040;-54
2023/01/13 00:31:25;;;;;;;18.70;10.52;;;27.20;94.70;;;;;;5006984;28;20014;-54
2023/01/13 00:33:52;;;;;;;15.60;9.52;;;27.20;94.70;;;;;;5003533;28;20042;-54
2023/01/13 00:36:20;;;;;;;15.65;9.25;;;27.20;94.60;;;;;;5006900;28;20076;-53
2023/01/13 00:38:47;;;;;;;12.52;8.88;;;27.10;94.40;;;;;;5006266;28;20057;-54
2023/01/13 00:41:19;;;;;;;14.07;9.23;;;27.20;94.40;;;;;;5004898;28;20030;-55
2023/01/13 00:43:46;;;;;;;17.80;9.07;;;27.10;94.20;;;;;;5006339;28;20025;-54
2023/01/13 00:46:16;;;;;;;15.63;8.60;;;27.20;94.20;;;;;;5005732;28;20382;-53
2023/01/13 00:48:43;;;;;;;15.55;8.93;;;27.10;94.10;;;;;;5006280;28;20089;-54
2023/01/13 00:51:15;;;;;;;16.45;8.75;;;27.10;94.00;;;;;;5006307;28;20129;-54
2023/01/13 00:53:43;;;;;;;;;;;27.10;93.90;;;;;;5006626;28;20030;-57
2023/01/13 00:56:21;;;;;;;13.93;8.50;;;27.10;93.90;;;;;;5006138;28;20248;-58
2023/01/13 00:58:57;;;;;;;17.25;8.82;;;27.10;93.90;;;;;;5004065;28;20049;-55
2023/01/13 01:01:24;;;;;;;14.20;7.90;;;27.00;93.80;;;;;;4991279;28;20077;-55
2023/01/13 01:03:53;;;;;;;12.10;8.00;;;26.80;93.80;;;;;;4986645;28;20238;-48
2023/01/13 01:06:22;;;;;;;15.95;8.05;;;26.70;93.80;;;;;;4986321;28;20361;-55
2023/01/13 01:08:49;;;;;;;20.33;8.50;;;26.60;94.00;;;;;;4988264;28;20043;-53
2023/01/13 01:11:28;;;;;;;15.35;8.18;;;26.60;94.10;;;;;;4992681;28;20041;-52
2023/01/13 01:13:56;;;;;;;14.68;8.23;;;26.50;94.20;;;;;;4992922;28;20034;-53
2023/01/13 01:16:26;;;;;;;13.32;7.40;;;26.40;94.30;;;;;;5005896;28;20253;-51
2023/01/13 01:19:04;;;;;;;16.05;8.43;;;26.40;94.30;;;;;;5005751;28;20034;-54
2023/01/13 01:21:33;;;;;;;13.38;8.00;;;26.40;94.20;;;;;;4988148;28;20057;-52
2023/01/13 01:24:01;;;;;;;14.35;7.95;;;26.30;94.30;;;;;;5005451;28;20030;-52
2023/01/13 01:26:29;;;;;;;13.43;7.63;;;26.30;94.20;;;;;;5005315;28;20243;-54
2023/01/13 01:28:56;;;;;;;14.88;7.80;;;26.20;93.80;;;;;;5004049;28;20030;-53
2023/01/13 01:31:32;;;;;;;19.48;8.20;;;26.10;93.90;;;;;;5005667;28;20030;-56
2023/01/13 01:34:08;;;;;;;21.50;8.35;;;26.20;94.00;;;;;;5005089;28;20026;-57
2023/01/13 01:36:39;;;;;;;57.00;11.50;;;26.30;93.90;;;;;;4992600;28;20034;-57
2023/01/13 01:39:06;;;;;;;41.15;10.82;;;26.40;93.70;;;;;;5005505;28;20014;-58
2023/01/13 01:41:34;;;;;;;40.80;10.05;;;26.40;93.50;;;;;;5005905;28;20037;-58
2023/01/13 01:44:41;;;;;;;36.00;9.88;;;26.50;93.40;;;;;;5003514;28;20021;-59
2023/01/13 01:47:14;;;;;;;24.27;8.88;;;26.60;93.20;;;;;;4995266;28;20018;-57
2023/01/13 01:49:43;;;;;;;19.60;8.18;;;26.60;93.00;;;;;;4994262;28;20034;-58
2023/01/13 01:52:30;;;;;;;17.88;8.57;;;26.60;92.80;;;;;;4985800;28;20034;-56
2023/01/13 01:55:08;;;;;;;17.85;8.27;;;26.60;92.60;;;;;;4985669;28;20030;-59
2023/01/13 01:57:56;;;;;;;14.70;7.60;;;26.60;92.40;;;;;;4984892;28;20057;-55
2023/01/13 02:00:24;;;;;;;14.90;7.75;;;26.70;92.30;;;;;;4985577;28;20031;-59
2023/01/13 02:02:53;;;;;;;9.65;7.32;;;26.60;92.20;;;;;;4984164;28;20041;-57
2023/01/13 02:05:20;;;;;;;15.70;6.90;;;26.70;92.10;;;;;;4985480;28;20026;-56
2023/01/13 02:07:50;;;;;;;15.73;6.78;;;26.70;92.10;;;;;;4985504;28;20035;-56
2023/01/13 02:10:19;;;;;;;20.52;7.63;;;26.60;91.90;;;;;;4985447;28;20034;-60
2023/01/13 02:12:48;;;;;;;14.75;7.22;;;26.60;91.90;;;;;;4995442;28;20034;-60
2023/01/13 02:15:25;;;;;;;15.77;6.93;;;26.70;91.90;;;;;;4992103;28;20327;-59
2023/01/13 02:18:07;;;;;;;13.52;6.72;;;26.70;91.80;;;;;;4985450;28;20034;-54
2023/01/13 02:20:58;;;;;;;13.65;6.57;;;26.60;91.60;;;;;;4985486;28;20039;-55
2023/01/13 02:27:08;;;;;;;11.23;6.93;;;26.60;91.60;;;;;;4989541;28;20050;-55
2023/01/13 02:33:06;;;;;;;14.20;7.03;;;26.60;91.50;;;;;;4985735;28;20046;-57
2023/01/13 02:35:48;;;;;;;11.90;5.88;;;26.60;91.50;;;;;;4985129;28;20030;-58
2023/01/13 02:38:21;;;;;;;11.13;5.77;;;26.60;91.40;;;;;;4985587;28;20069;-59
2023/01/13 02:44:05;;;;;;;10.13;5.82;;;26.60;91.40;;;;;;4969094;28;20318;-60
2023/01/13 02:44:09;;;;;;;10.23;5.53;;;26.60;91.30;;;;;;4987533;28;20037;-56
2023/01/13 02:47:17;;;;;;;8.75;5.20;;;26.50;91.20;;;;;;4986143;28;20030;-56
2023/01/13 02:49:51;;;;;;;10.40;5.70;;;26.50;91.10;;;;;;4952974;28;20202;-57
2023/01/13 02:52:28;;;;;;;17.10;5.43;;;26.60;91.10;;;;;;4985641;28;20058;-55
2023/01/13 02:54:59;;;;;;;11.68;5.20;;;26.50;91.00;;;;;;4984793;28;20374;-54
2023/01/13 02:57:29;;;;;;;9.93;5.10;;;26.50;91.00;;;;;;4989985;28;20041;-55
2023/01/13 02:59:56;;;;;;;13.35;5.20;;;26.50;91.00;;;;;;4999112;28;20022;-55
2023/01/13 03:02:25;;;;;;;11.90;5.40;;;26.50;91.00;;;;;;5005260;28;20045;-60
2023/01/13 03:05:02;;;;;;;9.30;5.13;;;26.50;91.00;;;;;;5005106;28;20025;-55
2023/01/13 03:08:17;;;;;;;7.65;4.82;;;26.50;91.00;;;;;;5004012;28;20026;-59
2023/01/13 03:10:58;;;;;;;11.10;5.18;;;26.50;91.00;;;;;;5000556;28;20062;-56
2023/01/13 03:14:03;;;;;;;11.00;5.00;;;26.40;90.90;;;;;;5008439;28;20213;-57
2023/01/13 03:17:08;;;;;;;17.60;5.80;;;26.50;90.90;;;;;;4975943;28;20026;-50
2023/01/13 03:19:44;;;;;;;10.18;4.65;;;26.50;90.90;;;;;;4948328;29;20115;-54
2023/01/13 03:22:46;;;;;;;9.35;5.10;;;26.50;90.80;;;;;;4948474;29;20047;-60
2023/01/13 03:25:24;;;;;;;12.48;4.90;;;26.40;90.70;;;;;;4982471;28;20027;-60
2023/01/13 03:28:01;;;;;;;9.63;5.40;;;26.40;90.70;;;;;;5003910;28;20287;-57
2023/01/13 03:30:41;;;;;;;10.32;5.40;;;26.40;90.80;;;;;;4999201;28;20069;-57
2023/01/13 03:33:56;;;;;;;11.10;5.20;;;26.40;90.70;;;;;;5007963;28;20026;-54
2023/01/13 03:36:25;;;;;;;11.77;5.55;;;26.40;90.70;;;;;;4947971;29;20043;-56
2023/01/13 03:39:10;;;;;;;10.63;5.35;;;26.40;90.70;;;;;;4947697;29;20043;-56
2023/01/13 03:41:56;;;;;;;12.48;10.13;;;26.40;90.60;;;;;;5007312;28;20030;-56
2023/01/13 03:44:32;;;;;;;18.10;15.07;;;26.30;90.70;;;;;;5008031;28;20041;-60
2023/01/13 03:47:32;;;;;;;13.90;10.32;;;26.30;90.60;;;;;;5007792;28;20361;-55
2023/01/13 03:50:27;;;;;;;15.40;10.60;;;26.30;90.60;;;;;;5007620;28;20026;-56
2023/01/13 03:53:16;;;;;;;14.95;9.05;;;26.30;90.60;;;;;;5007424;28;20030;-58
2023/01/13 03:55:53;;;;;;;15.40;8.10;;;26.30;90.60;;;;;;5007062;28;20026;-56
2023/01/13 03:58:32;;;;;;;11.57;7.10;;;26.30;90.50;;;;;;5007415;28;20093;-59
2023/01/13 04:01:16;;;;;;;10.85;6.80;;;26.30;90.60;;;;;;5006945;28;20018;-57
2023/01/13 04:03:53;;;;;;;8.65;5.53;;;26.30;90.60;;;;;;5008337;28;20049;-58
2023/01/13 04:06:28;;;;;;;11.18;6.43;;;26.30;90.60;;;;;;5006903;28;20089;-57
2023/01/13 04:09:17;;;;;;;12.38;5.75;;;26.30;90.50;;;;;;5007061;28;20330;-59
2023/01/13 04:11:50;;;;;;;13.13;5.63;;;26.20;90.50;;;;;;5006715;28;20042;-55
2023/01/13 04:14:20;;;;;;;14.15;5.63;;;26.20;90.50;;;;;;5007352;28;20057;-54
2023/01/13 04:16:48;;;;;;;11.27;5.80;;;26.20;90.40;;;;;;5002051;28;20030;-59
2023/01/13 04:19:14;;;;;;;9.65;5.05;;;26.20;90.60;;;;;;4992113;28;20223;-57
2023/01/13 04:21:41;;;;;;;13.30;5.50;;;26.20;90.40;;;;;;5002624;28;20026;-56
2023/01/13 04:24:11;;;;;;;10.40;5.13;;;26.20;90.40;;;;;;5006477;28;20034;-57
2023/01/13 04:26:38;;;;;;;12.48;5.20;;;26.20;90.30;;;;;;4989331;28;20061;-55
2023/01/13 04:29:05;;;;;;;11.10;4.97;;;26.20;90.30;;;;;;5006947;28;20310;-49
2023/01/13 04:31:31;;;;;;;8.93;5.50;;;26.20;90.30;;;;;;5006780;28;20046;-57
2023/01/13 04:33:58;;;;;;;9.98;5.05;;;26.20;90.30;;;;;;5006922;28;20026;-55
2023/01/13 04:36:26;;;;;;;10.23;5.25;;;26.10;90.20;;;;;;5006458;28;20022;-55
2023/01/13 04:38:54;;;;;;;9.35;4.68;;;26.10;90.10;;;;;;5006882;28;20106;-56
2023/01/13 04:41:21;;;;;;;10.82;4.93;;;26.20;90.10;;;;;;5006495;28;20060;-59
2023/01/13 04:43:47;;;;;;;10.93;5.38;;;26.20;90.20;;;;;;5006729;28;20030;-55
2023/01/13 04:46:14;;;;;;;9.80;5.05;;;26.20;90.10;;;;;;5006161;28;20021;-56
2023/01/13 04:48:40;;;;;;;10.57;5.22;;;26.10;90.10;;;;;;5006502;28;20105;-56
2023/01/13 04:51:08;;;;;;;11.18;5.13;;;26.20;90.10;;;;;;5006195;28;20032;-56
2023/01/13 04:53:35;;;;;;;11.50;5.32;;;26.20;90.20;;;;;;5006284;28;20019;-57
2023/01/13 04:56:01;;;;;;;7.10;4.93;;;26.20;90.30;;;;;;5001975;28;20026;-57
2023/01/13 04:58:28;;;;;;;10.38;4.60;;;26.10;90.20;;;;;;4997653;28;20238;-56
2023/01/13 05:00:55;;;;;;;10.40;5.53;;;26.20;90.20;;;;;;5005887;28;20026;-54
2023/01/13 05:03:23;;;;;;;11.73;4.90;;;26.10;90.00;;;;;;5006119;28;20039;-55
2023/01/13 05:05:52;;;;;;;10.93;5.35;;;26.10;90.10;;;;;;5005909;28;20090;-59
2023/01/13 05:08:19;;;;;;;8.68;4.85;;;26.10;89.80;;;;;;5005956;28;20041;-55
2023/01/13 05:10:45;;;;;;;6.80;4.78;;;26.10;90.00;;;;;;5005553;28;20238;-56
2023/01/13 05:18:46;;;;;;;10.77;4.55;;;26.10;89.60;;;;;;5005852;28;20092;-55
2023/01/13 05:26:53;;;;;;;12.30;4.60;;;26.20;89.70;;;;;;4982633;28;20049;-55
2023/01/13 05:29:19;;;;;;;8.02;4.60;;;26.20;89.70;;;;;;5005775;28;20034;-54
2023/01/13 05:31:46;;;;;;;8.60;4.50;;;26.20;90.10;;;;;;5005239;28;20053;-56
2023/01/13 05:34:12;;;;;;;7.68;4.88;;;26.20;89.70;;;;;;5005642;28;20026;-56
2023/01/13 05:36:40;;;;;;;7.75;4.70;;;26.20;89.70;;;;;;5004578;28;20041;-57
2023/01/13 05:39:07;;;;;;;8.50;5.15;;;26.10;89.80;;;;;;5004585;28;20031;-56
2023/01/13 05:44:18;;;;;;;10.02;4.78;;;26.10;89.50;;;;;;4995895;28;20065;-57
2023/01/13 05:46:44;;;;;;;10.80;4.63;;;26.10;89.70;;;;;;4994147;28;20047;-57
2023/01/13 05:49:11;;;;;;;7.78;4.30;;;26.10;89.60;;;;;;4993720;28;20049;-56
2023/01/13 05:51:37;;;;;;;8.93;4.70;;;26.10;89.80;;;;;;4995178;28;20026;-60
2023/01/13 05:54:04;;;;;;;6.85;4.32;;;26.10;89.70;;;;;;4994263;28;20034;-56
2023/01/13 05:56:31;;;;;;;8.13;4.72;;;26.10;89.40;;;;;;4993114;28;20072;-59
2023/01/13 05:58:57;;;;;;;9.05;4.65;;;26.10;89.30;;;;;;4995332;28;20033;-57
2023/01/13 06:01:24;;;;;;;8.05;4.35;;;26.10;89.30;;;;;;4999955;28;20018;-55
2023/01/13 06:03:50;;;;;;;10.68;4.50;;;26.10;89.20;;;;;;4996264;28;20058;-55
2023/01/13 06:06:17;;;;;;;10.68;4.28;;;26.20;89.30;;;;;;4994853;28;20089;-56
2023/01/13 06:08:44;;;;;;;6.40;4.47;;;26.20;89.30;;;;;;4993567;28;20105;-55
2023/01/13 06:11:10;;;;;;;8.00;3.92;;;26.20;89.50;;;;;;4993199;28;20054;-57
2023/01/13 06:13:37;;;;;;;12.00;4.35;;;26.20;89.30;;;;;;4995067;28;20069;-56
2023/01/13 06:16:04;;;;;;;9.05;4.70;;;26.20;88.90;;;;;;4993471;28;20029;-57
2023/01/13 06:18:30;;;;;;;10.90;4.60;;;26.20;89.20;;;;;;4993386;28;20031;-54
2023/01/13 06:20:57;;;;;;;6.70;4.53;;;26.20;89.00;;;;;;4994664;28;20068;-55
2023/01/13 06:23:24;;;;;;;11.18;4.40;;;26.20;89.20;;;;;;4993665;28;20027;-55
2023/01/13 06:26:15;;;;;;;8.05;4.30;;;26.20;89.30;;;;;;4993014;28;20385;-56
2023/01/13 06:28:41;;;;;;;8.57;4.53;;;26.10;89.30;;;;;;4995034;28;20033;-55
2023/01/13 06:31:09;;;;;;;5.97;4.40;;;26.10;89.80;;;;;;4994081;28;20015;-54
2023/01/13 06:33:48;;;;;;;7.03;4.90;;;26.10;89.40;;;;;;4992852;28;20306;-61
2023/01/13 06:36:34;;;;;;;10.98;4.72;;;26.20;89.40;;;;;;4975278;28;20023;-53
2023/01/13 06:39:03;;;;;;;9.93;4.90;;;26.20;89.50;;;;;;4995024;28;20046;-55
2023/01/13 06:44:18;;;;;;;7.05;4.28;;;26.10;89.40;;;;;;4997658;28;20058;-54
2023/01/13 06:46:46;;;;;;;9.98;5.00;;;26.10;89.50;;;;;;4997556;28;20011;-55
2023/01/13 06:49:12;;;;;;;7.38;4.68;;;26.10;89.40;;;;;;4998783;28;20110;-55
2023/01/13 06:51:39;;;;;;;8.88;4.95;;;26.10;89.50;;;;;;4996706;28;20025;-58
2023/01/13 06:54:06;;;;;;;7.22;5.15;;;26.10;89.50;;;;;;4997250;28;20030;-55
2023/01/13 06:56:32;;;;;;;9.82;4.90;;;26.10;89.60;;;;;;4997705;28;20045;-55
2023/01/13 06:58:59;;;;;;;10.10;4.47;;;26.10;89.40;;;;;;5002390;28;20019;-56
2023/01/13 07:01:25;;;;;;;10.07;5.25;;;26.10;89.50;;;;;;4997229;28;20056;-58
2023/01/13 07:03:52;;;;;;;7.50;4.88;;;26.10;89.30;;;;;;4998384;28;20090;-54
2023/01/13 07:06:18;;;;;;;7.57;4.88;;;26.20;89.60;;;;;;4998184;28;20033;-61
2023/01/13 07:08:45;;;;;;;12.45;5.53;;;26.20;89.50;;;;;;4997274;28;20041;-56
2023/01/13 07:11:11;;;;;;;7.30;5.20;;;26.20;89.30;;;;;;4996223;28;20384;-53
2023/01/13 07:16:23;;;;;;;8.40;5.32;;;26.20;88.80;;;;;;4998069;28;20369;-55
2023/01/13 07:18:49;;;;;;;8.95;4.82;;;26.20;88.80;;;;;;4997785;28;20073;-55
2023/01/13 07:21:18;;;;;;;8.20;5.03;;;26.20;88.90;;;;;;4995784;28;20120;-55
2023/01/13 07:23:46;;;;;;;8.68;5.03;;;26.20;88.70;;;;;;4997239;28;20023;-55
2023/01/13 07:26:14;;;;;;;13.20;5.80;;;26.20;88.80;;;;;;4997800;28;20029;-54
2023/01/13 07:28:41;;;;;;;10.23;5.22;;;26.20;88.90;;;;;;4998245;28;20018;-55
2023/01/13 07:31:19;;;;;;;7.90;4.88;;;26.20;88.70;;;;;;4997113;28;20015;-55
2023/01/13 07:33:47;;;;;;;6.80;4.80;;;26.20;88.70;;;;;;4997934;28;20029;-55
2023/01/13 07:36:14;;;;;;;8.00;4.60;;;26.20;88.50;;;;;;4997632;28;20072;-56
2023/01/13 07:38:43;;;;;;;11.75;5.00;;;26.20;88.30;;;;;;4996227;28;20015;-56
2023/01/13 07:43:59;;;;;;;8.13;4.97;;;26.20;88.20;;;;;;4998456;28;20066;-55
2023/01/13 07:46:25;;;;;;;11.73;4.85;;;26.20;88.20;;;;;;4996540;28;20335;-57
2023/01/13 07:48:52;;;;;;;10.35;5.40;;;26.20;88.10;;;;;;4997678;28;20359;-56
2023/01/13 07:51:19;;;;;;;6.75;4.93;;;26.20;88.10;;;;;;4997321;28;20057;-56
2023/01/13 07:53:45;;;;;;;7.90;4.72;;;26.20;88.30;;;;;;4996623;28;20019;-57
2023/01/13 07:56:12;;;;;;;9.40;4.72;;;26.20;88.40;;;;;;5002720;28;20018;-56
2023/01/13 07:58:38;;;;;;;10.15;5.03;;;26.20;88.60;;;;;;5007147;28;20026;-57
2023/01/13 08:01:10;;;;;;;9.93;4.93;;;26.20;88.30;;;;;;5007173;28;20045;-56
2023/01/13 08:03:38;;;;;;;7.43;4.40;;;26.20;88.40;;;;;;5007277;28;20030;-57
2023/01/13 08:06:06;;;;;;;8.80;4.72;;;26.20;88.50;;;;;;5006764;28;20030;-56
2023/01/13 08:08:32;;;;;;;11.75;4.85;;;26.20;88.60;;;;;;5006865;28;20031;-56
2023/01/13 08:11:00;;;;;;;8.07;5.00;;;26.20;88.60;;;;;;5006881;28;20030;-62
2023/01/13 08:13:27;;;;;;;9.73;4.80;;;26.20;88.80;;;;;;5006932;28;20038;-55
2023/01/13 08:16:00;;;;;;;10.55;4.80;;;26.20;88.80;;;;;;5006793;28;20021;-56
2023/01/13 08:18:26;;;;;;;7.93;4.80;;;26.20;88.70;;;;;;5006993;28;20038;-55
2023/01/13 08:20:53;;;;;;;8.65;4.65;;;26.20;88.70;;;;;;5006596;28;20019;-56
2023/01/13 08:23:21;;;;;;;11.20;4.93;;;26.20;88.90;;;;;;5006721;28;20098;-56
2023/01/13 08:25:48;;;;;;;11.13;5.22;;;26.20;88.90;;;;;;5006632;28;20073;-56
2023/01/13 08:28:15;;;;;;;9.60;4.82;;;26.20;88.80;;;;;;5006695;28;20198;-55
2023/01/13 08:30:42;;;;;;;9.73;4.85;;;26.20;88.70;;;;;;5006437;28;20030;-55
2023/01/13 08:33:10;;;;;;;6.40;4.30;;;26.20;88.60;;;;;;5006634;28;20026;-56
2023/01/13 08:35:38;;;;;;;7.05;4.57;;;26.20;88.40;;;;;;5006301;28;20085;-57
2023/01/13 08:38:06;;;;;;;7.25;4.78;;;26.20;88.50;;;;;;5006234;28;20022;-55
2023/01/13 08:40:33;;;;;;;8.68;5.13;;;26.20;88.50;;;;;;5006247;28;20026;-56
2023/01/13 08:43:00;;;;;;;7.45;4.97;;;26.20;88.50;;;;;;5006238;28;20042;-55
2023/01/13 08:45:27;;;;;;;7.15;4.57;;;26.20;88.50;;;;;;5006221;28;20053;-56
2023/01/13 08:47:54;;;;;;;8.45;4.45;;;26.20;88.70;;;;;;5006379;28;20038;-56
2023/01/13 08:50:20;;;;;;;8.45;4.63;;;26.10;89.00;;;;;;5005982;28;20025;-58
2023/01/13 08:52:47;;;;;;;8.77;4.75;;;26.10;89.10;;;;;;5006269;28;20033;-57
2023/01/13 08:55:13;;;;;;;11.50;5.68;;;26.10;89.20;;;;;;5006116;28;20260;-65
2023/01/13 08:57:40;;;;;;;10.00;4.90;;;26.20;89.30;;;;;;5005955;28;20199;-55
2023/01/13 09:00:08;;;;;;;8.35;4.75;;;26.20;89.60;;;;;;5005987;28;20038;-55
2023/01/13 09:02:35;;;;;;;6.68;4.93;;;26.10;89.60;;;;;;5005845;28;20029;-55
2023/01/13 09:05:02;;;;;;;7.93;4.70;;;26.10;89.60;;;;;;5005669;28;20045;-56
2023/01/13 09:07:30;;;;;;;10.02;5.47;;;26.20;89.70;;;;;;5005258;28;20034;-62
2023/01/13 09:09:57;;;;;;;7.05;5.00;;;26.10;89.60;;;;;;5005806;28;20042;-55
2023/01/13 09:15:08;;;;;;;8.18;4.75;;;26.10;89.50;;;;;;5005750;28;20139;-55
2023/01/13 09:17:35;;;;;;;10.95;5.32;;;26.10;89.80;;;;;;5005372;28;20041;-56
2023/01/13 09:20:02;;;;;;;12.73;5.65;;;26.10;89.90;;;;;;5005661;28;20060;-54
2023/01/13 09:22:28;;;;;;;6.55;5.20;;;26.10;89.90;;;;;;5004386;28;20030;-55
2023/01/13 09:24:55;;;;;;;10.43;5.22;;;26.10;89.80;;;;;;5005319;28;20034;-56
2023/01/13 09:27:22;;;;;;;8.80;5.20;;;26.10;90.00;;;;;;5005480;28;20203;-56
2023/01/13 09:29:49;;;;;;;9.35;5.13;;;26.10;90.00;;;;;;5005352;28;20041;-55
2023/01/13 09:32:16;;;;;;;11.82;5.57;;;26.10;90.00;;;;;;5005125;28;20259;-56
2023/01/13 09:35:01;;;;;;;8.57;4.78;;;26.10;89.70;;;;;;5005285;28;20085;-61
2023/01/13 09:37:29;;;;;;;10.70;4.97;;;26.10;89.70;;;;;;5005109;28;20034;-53
2023/01/13 09:39:56;;;;;;;12.38;5.60;;;26.10;89.90;;;;;;5005137;28;20026;-55
2023/01/13 09:45:41;;;;;;;7.47;4.68;;;26.10;90.00;;;;;;5004442;28;20194;-60
2023/01/13 09:48:28;;;;;;;9.48;5.15;;;26.10;90.00;;;;;;5004321;28;20331;-57
2023/01/13 09:51:17;;;;;;;9.73;5.00;;;26.10;90.00;;;;;;5004086;28;20015;-55
2023/01/13 09:53:54;;;;;;;8.40;4.95;;;26.10;90.10;;;;;;5004602;28;20034;-61
2023/01/13 09:56:22;;;;;;;8.95;4.80;;;26.10;90.10;;;;;;4996340;28;20247;-56
2023/01/13 09:58:49;;;;;;;8.88;5.05;;;26.10;90.20;;;;;;4989102;28;20089;-55
2023/01/13 10:01:41;;;;;;;9.73;5.05;;;26.10;90.20;;;;;;4999781;28;20018;-57
2023/01/13 10:04:13;;;;;;;8.20;4.85;;;26.10;90.10;;;;;;4985498;28;20065;-55
2023/01/13 10:06:46;;;;;;;8.95;5.03;;;26.10;90.10;;;;;;4999616;28;20033;-56
2023/01/13 10:09:42;;;;;;;10.18;5.10;;;26.10;90.10;;;;;;5004677;28;20051;-56
2023/01/13 10:14:59;;;;;;;10.95;5.10;;;26.10;90.10;;;;;;5004751;28;20038;-59
2023/01/13 10:17:44;;;;;;;8.90;5.13;;;26.10;90.10;;;;;;5003266;28;20018;-56
2023/01/13 10:20:35;;;;;;;7.82;4.82;;;26.10;90.20;;;;;;4992617;28;20041;-59
2023/01/13 10:23:01;;;;;;;10.60;4.95;;;26.10;90.00;;;;;;4990875;28;20030;-61
2023/01/13 10:25:52;;;;;;;9.05;4.90;;;26.10;89.80;;;;;;4988377;28;20069;-55
2023/01/13 10:28:22;;;;;;;7.40;4.35;;;26.10;89.20;;;;;;4985353;28;20031;-53
2023/01/13 10:30:49;;;;;;;10.32;4.78;;;26.10;89.00;;;;;;4984967;28;20031;-54
2023/01/13 10:33:19;;;;;;;8.05;4.13;;;26.10;88.70;;;;;;4985218;28;20023;-53
2023/01/13 10:36:11;;;;;;;8.07;4.60;;;26.10;88.70;;;;;;4988045;28;20026;-55
2023/01/13 10:38:39;;;;;;;6.67;4.17;;;26.10;88.50;;;;;;4989870;28;20106;-56
2023/01/13 10:41:19;;;;;;;7.22;4.07;;;26.10;88.70;;;;;;4990685;28;20270;-56
2023/01/13 10:43:51;;;;;;;7.65;4.25;;;26.10;88.80;;;;;;5004636;28;20038;-57
2023/01/13 10:46:19;;;;;;;7.55;4.68;;;26.10;88.60;;;;;;5004364;28;20026;-56
2023/01/13 10:49:02;;;;;;;10.82;4.20;;;26.10;88.70;;;;;;5004489;28;20030;-56
2023/01/13 10:51:37;;;;;;;7.70;4.18;;;26.10;88.60;;;;;;4989917;28;20030;-57
2023/01/13 10:54:06;;;;;;;6.95;4.40;;;26.10;88.70;;;;;;4994473;28;20358;-56
2023/01/13 10:56:33;;;;;;;10.38;6.28;;;26.10;88.50;;;;;;4984597;28;20319;-57
2023/01/13 10:59:09;;;;;;;10.27;7.10;;;26.10;88.60;;;;;;4985250;28;20362;-59
2023/01/13 11:01:36;;;;;;;9.82;6.63;;;26.10;88.70;;;;;;4996186;28;20315;-55
2023/01/13 11:04:29;;;;;;;11.25;6.13;;;26.10;88.90;;;;;;5004486;28;20042;-60
2023/01/13 11:06:56;;;;;;;7.13;4.88;;;26.10;89.00;;;;;;5003794;28;20033;-57
2023/01/13 11:09:26;;;;;;;7.50;4.97;;;26.10;88.90;;;;;;5003826;28;20062;-57
2023/01/13 11:11:56;;;;;;;8.88;5.18;;;26.10;89.00;;;;;;5002457;28;20352;-59
2023/01/13 11:14:40;;;;;;;8.77;5.30;;;26.10;88.90;;;;;;5003770;28;20049;-55
2023/01/13 11:17:19;;;;;;;8.73;5.43;;;26.10;88.90;;;;;;5003847;28;20034;-56
2023/01/13 11:20:15;;;;;;;11.35;5.28;;;26.10;89.00;;;;;;5003801;28;20029;-56
2023/01/13 11:22:51;;;;;;;8.52;4.88;;;26.10;89.00;;;;;;4997499;28;20058;-57
2023/01/13 11:25:40;;;;;;;12.38;6.53;;;26.10;89.30;;;;;;5004054;28;20026;-61
2023/01/13 11:28:40;;;;;;;6.97;5.13;;;26.10;89.20;;;;;;5004018;28;20034;-54
2023/01/13 11:31:23;;;;;;;9.80;5.10;;;26.10;89.20;;;;;;5007288;28;20026;-57
2023/01/13 11:34:26;;;;;;;9.70;5.50;;;26.10;89.30;;;;;;5004836;28;20026;-56
2023/01/13 11:36:55;;;;;;;7.82;4.80;;;26.10;89.40;;;;;;4988246;28;20035;-56
2023/01/13 11:39:44;;;;;;;9.90;4.85;;;26.10;89.40;;;;;;4970922;28;20039;-61
2023/01/13 11:42:39;;;;;;;6.93;4.47;;;26.10;89.30;;;;;;5000262;28;20042;-57
2023/01/13 11:45:44;;;;;;;7.93;4.65;;;26.10;89.40;;;;;;5007133;28;20014;-56
2023/01/13 11:48:21;;;;;;;6.53;4.18;;;26.10;89.20;;;;;;4980301;28;20089;-57
2023/01/13 11:50:55;;;;;;;8.50;5.00;;;26.10;89.60;;;;;;4988293;28;20023;-56
2023/01/13 11:53:58;;;;;;;9.48;4.88;;;26.10;89.80;;;;;;4989670;28;20259;-56
2023/01/13 11:57:00;;;;;;;8.43;4.88;;;26.10;89.80;;;;;;5007357;28;20033;-54
2023/01/13 11:59:30;;;;;;;7.45;4.47;;;26.10;89.90;;;;;;5006035;28;20331;-61
2023/01/13 12:02:26;;;;;;;8.48;4.82;;;26.10;89.80;;;;;;5006968;28;20068;-57
2023/01/13 12:04:58;;;;;;;7.07;4.90;;;26.10;89.90;;;;;;5006889;28;20318;-55
2023/01/13 12:07:53;;;;;;;9.75;4.97;;;26.10;89.80;;;;;;5005441;28;20022;-55
2023/01/13 12:10:28;;;;;;;9.10;4.95;;;26.20;89.90;;;;;;5006537;28;20042;-61
2023/01/13 12:13:39;;;;;;;10.55;5.85;;;26.20;89.90;;;;;;5005518;28;20030;-56
2023/01/13 12:16:27;;;;;;;8.85;5.90;;;26.20;90.00;;;;;;5006376;28;20045;-56
2023/01/13 12:19:17;;;;;;;11.80;5.78;;;26.20;90.10;;;;;;5007623;28;20098;-56
2023/01/13 12:21:56;;;;;;;11.57;5.82;;;26.20;90.20;;;;;;4996594;28;20042;-54
2023/01/13 12:24:38;;;;;;;9.90;5.53;;;26.20;90.20;;;;;;4989122;28;20402;-56
2023/01/13 12:27:31;;;;;;;11.68;5.85;;;26.30;90.20;;;;;;5003977;28;20045;-56
2023/01/13 12:30:01;;;;;;;13.00;6.07;;;26.30;90.20;;;;;;5004474;28;20018;-57
2023/01/13 12:32:38;;;;;;;9.63;5.40;;;26.30;90.30;;;;;;5004390;28;20034;-55
2023/01/13 12:35:29;;;;;;;9.15;5.50;;;26.30;90.30;;;;;;5006723;28;20085;-54
2023/01/13 12:38:21;;;;;;;9.57;5.70;;;26.30;90.30;;;;;;4989650;28;20046;-56
2023/01/13 12:41:00;;;;;;;;;;;26.30;90.40;;;;;;5000585;28;20089;-55
2023/01/13 12:46:21;;;;;;;10.25;5.65;;;26.40;90.50;;;;;;5006704;28;20177;-56
2023/01/13 12:48:55;;;;;;;10.48;5.57;;;26.40;90.70;;;;;;5006821;28;20030;-60
2023/01/13 12:51:32;;;;;;;8.55;5.82;;;26.40;90.70;;;;;;5006131;28;20026;-60
2023/01/13 12:54:25;;;;;;;8.15;5.75;;;26.40;90.70;;;;;;5006143;28;20037;-59
2023/01/13 12:56:53;;;;;;;9.13;5.43;;;26.50;90.70;;;;;;4995810;28;20219;-58
2023/01/13 12:59:21;;;;;;;7.28;5.53;;;26.50;90.80;;;;;;5006261;28;20121;-59
2023/01/13 13:01:50;;;;;;;8.77;5.85;;;26.50;90.80;;;;;;5006612;28;20081;-57
2023/01/13 13:04:18;;;;;;;10.90;5.47;;;26.50;90.70;;;;;;4986898;28;20251;-54
2023/01/13 13:07:10;;;;;;;9.48;5.38;;;26.50;90.60;;;;;;4993850;28;20230;-63
2023/01/13 13:09:50;;;;;;;9.27;5.78;;;26.60;90.70;;;;;;4967870;28;20042;-58
2023/01/13 13:15:34;;;;;;;8.95;5.68;;;26.60;90.80;;;;;;4994339;28;20030;-56
2023/01/13 13:18:16;;;;;;;9.00;5.05;;;26.60;90.70;;;;;;4988900;28;20184;-55
2023/01/13 13:21:05;;;;;;;8.83;5.60;;;26.70;90.70;;;;;;4986237;28;20029;-57
2023/01/13 13:24:01;;;;;;;8.15;5.38;;;26.70;90.70;;;;;;4986567;28;20118;-54
2023/01/13 13:26:37;;;;;;;9.38;5.25;;;26.70;90.80;;;;;;4986041;28;20011;-60
2023/01/13 13:29:22;;;;;;;7.45;5.35;;;26.70;90.90;;;;;;4996859;28;20038;-56
2023/01/13 13:32:11;;;;;;;9.70;5.50;;;26.70;91.00;;;;;;4986325;28;20019;-54
2023/01/13 13:34:59;;;;;;;7.65;5.32;;;26.80;91.10;;;;;;4986164;28;20069;-56
2023/01/13 13:46:47;;;;;;;7.43;5.03;;;26.80;91.30;;;;;;4996431;28;20290;-60
2023/01/13 13:49:33;;;;;;;7.97;5.35;;;26.80;91.30;;;;;;4996616;28;20029;-58
2023/01/13 13:52:02;;;;;;;9.32;5.55;;;26.80;91.40;;;;;;4998312;28;20057;-56
2023/01/13 13:54:30;;;;;;;9.68;5.40;;;26.80;91.40;;;;;;5004957;28;20261;-56
2023/01/13 13:56:58;;;;;;;8.57;5.65;;;26.80;91.40;;;;;;5005132;28;20104;-57
2023/01/13 13:59:32;;;;;;;9.20;5.60;;;26.80;91.40;;;;;;5006039;28;20069;-58
2023/01/13 14:02:02;;;;;;;8.68;5.00;;;26.90;91.40;;;;;;5005226;28;20322;-59
2023/01/13 14:04:38;;;;;;;8.73;6.18;;;26.90;91.40;;;;;;5005571;28;20215;-55
2023/01/13 14:07:20;;;;;;;9.52;5.53;;;26.90;91.50;;;;;;5004967;28;20072;-60
2023/01/13 14:09:55;;;;;;;8.38;5.55;;;26.90;91.30;;;;;;5004938;28;20084;-56
2023/01/13 14:12:24;;;;;;;7.47;5.57;;;26.90;91.30;;;;;;5004662;28;20032;-61